Time;durP1;ratioP1;P1;durP2;ratioP2;P2;SDS_P1;SDS_P2;PMS_P1;PMS_P2;Temp;Humidity;BMP_temperature;BMP_pressure;BME280_temperature;BME280_humidity;BME280_pressure;Samples;Min_cycle;Max_cycle;Signal;HPM_P1;HPM_P2
2024/03/27 00:03:20;;;;;;;0.10;0.10;;;;;;;-145.06;88.97;53657.47;10483934;28;20020;-68
2024/03/27 00:08:20;;;;;;;0.00;0.00;;;;;;;-145.06;89.17;53661.53;10488856;28;20395;-67
2024/03/27 00:13:21;;;;;;;0.10;0.10;;;;;;;-145.06;89.40;53653.44;10479187;28;20030;-67
2024/03/27 00:18:21;;;;;;;0.00;0.00;;;;;;;-145.06;89.68;53661.53;10487913;28;20112;-67
2024/03/27 00:23:21;;;;;;;0.00;0.00;;;;;;;-145.06;90.16;53645.31;10484548;28;20100;-67
2024/03/27 00:28:22;;;;;;;0.00;0.00;;;;;;;-145.06;90.48;53673.69;10477925;28;20029;-68
2024/03/27 00:33:23;;;;;;;0.00;0.00;;;;;;;-145.06;91.00;53649.38;10484202;28;20297;-68
2024/03/27 00:38:24;;;;;;;0.00;0.00;;;;;;;-145.06;91.43;53673.69;10481032;28;20089;-67
2024/03/27 00:43:24;;;;;;;0.10;0.10;;;;;;;-145.06;92.25;53657.47;10484116;28;20035;-67
2024/03/27 00:48:24;;;;;;;0.00;0.00;;;;;;;-145.06;93.11;53695.94;10482731;28;20038;-67
2024/03/27 00:53:25;;;;;;;0.00;0.00;;;;;;;-145.06;94.20;53651.41;10485663;28;20454;-67
2024/03/27 00:58:26;;;;;;;0.00;0.00;;;;;;;-145.06;95.88;53681.78;10486575;28;20370;-67
2024/03/27 01:03:27;;;;;;;0.00;0.00;;;;;;;-145.06;97.21;53687.84;10481623;28;20020;-66
2024/03/27 01:08:27;;;;;;;0.00;0.00;;;;;;;-145.06;99.23;53710.13;10481804;28;20024;-67
2024/03/27 01:13:27;;;;;;;0.00;0.00;;;;;;;-145.06;100.00;53718.22;10479832;28;20027;-69
2024/03/27 01:18:28;;;;;;;0.00;0.00;;;;;;;-145.06;100.00;53732.41;10480667;28;20255;-67
2024/03/27 01:23:28;;;;;;;0.00;0.00;;;;;;;-145.06;100.00;53730.38;10477528;28;20016;-67
2024/03/27 01:28:28;;;;;;;0.00;0.00;;;;;;;-145.06;100.00;53758.72;10483817;28;20081;-67
2024/03/27 01:33:28;;;;;;;0.00;0.00;;;;;;;-145.06;100.00;53732.41;10480773;28;20024;-67
2024/03/27 01:38:29;;;;;;;0.00;0.00;;;;;;;-145.06;100.00;53742.53;10481178;28;20469;-68
2024/03/27 01:43:29;;;;;;;0.00;0.00;;;;;;;-145.06;100.00;53748.59;10483432;28;20496;-67
2024/03/27 01:48:29;;;;;;;0.00;0.00;;;;;;;-145.06;100.00;53726.31;10483888;28;20031;-66
2024/03/27 01:53:31;;;;;;;0.00;0.00;;;;;;;-145.06;100.00;53718.22;10481960;28;20024;-67
2024/03/27 01:58:32;;;;;;;0.00;0.00;;;;;;;-145.06;100.00;53716.19;10480431;28;20020;-67
2024/03/27 02:03:33;;;;;;;0.00;0.00;;;;;;;-145.06;100.00;53693.94;10483360;28;20478;-69
2024/03/27 02:08:33;;;;;;;0.00;0.00;;;;;;;-145.06;100.00;53708.09;10482030;28;20017;-66
2024/03/27 02:13:33;;;;;;;0.00;0.00;;;;;;;-145.06;100.00;53685.81;10483027;28;20020;-67
2024/03/27 02:18:34;;;;;;;0.00;0.00;;;;;;;-145.06;100.00;53693.94;10481865;28;20017;-65
2024/03/27 02:23:43;;;;;;;0.00;0.00;;;;;;;-145.06;100.00;53689.88;10481996;28;20021;-66
2024/03/27 02:28:44;;;;;;;0.00;0.00;;;;;;;-145.06;100.00;53665.56;10477699;28;20441;-67
2024/03/27 02:33:44;;;;;;;0.00;0.00;;;;;;;-145.06;100.00;53639.25;10481393;28;20049;-66
2024/03/27 02:38:44;;;;;;;0.00;0.00;;;;;;;-145.06;100.00;53629.13;10469345;28;20104;-68
2024/03/27 02:43:45;;;;;;;0.00;0.00;;;;;;;-145.06;100.00;53629.13;10482712;28;20101;-67
2024/03/27 02:48:45;;;;;;;0.00;0.00;;;;;;;-145.06;100.00;53594.69;10483218;28;20025;-67
2024/03/27 02:53:46;;;;;;;0.00;0.00;;;;;;;-145.06;100.00;53596.72;10488068;28;20029;-68
2024/03/27 02:58:46;;;;;;;0.00;0.00;;;;;;;-145.06;100.00;53576.47;10492089;28;20021;-67
2024/03/27 03:03:46;;;;;;;0.00;0.00;;;;;;;-145.06;100.00;53580.53;10482282;28;20118;-68
2024/03/27 03:08:47;;;;;;;0.00;0.00;;;;;;;-145.06;100.00;53576.47;10492553;28;20075;-67
2024/03/27 03:13:47;;;;;;;0.00;0.00;;;;;;;-145.06;100.00;53576.47;10488526;28;20021;-67
2024/03/27 03:18:48;;;;;;;0.00;0.00;;;;;;;-145.06;100.00;53598.75;10491633;28;20040;-67
2024/03/27 03:23:48;;;;;;;0.00;0.00;;;;;;;-145.06;100.00;53614.94;10491636;28;20040;-67
2024/03/27 03:28:48;;;;;;;0.00;0.00;;;;;;;-145.06;100.00;53602.81;10490975;28;20016;-68
2024/03/27 03:33:49;;;;;;;0.00;0.00;;;;;;;-145.06;100.00;53616.97;10489367;28;20032;-67
2024/03/27 03:38:49;;;;;;;0.00;0.00;;;;;;;-145.06;100.00;53627.09;10488844;28;20044;-67
2024/03/27 03:43:49;;;;;;;0.00;0.00;;;;;;;-145.06;100.00;53665.56;10486466;28;20501;-66
2024/03/27 03:48:50;;;;;;;0.00;0.00;;;;;;;-145.06;100.00;53663.56;10486157;28;20467;-67
2024/03/27 03:53:50;;;;;;;0.00;0.00;;;;;;;-145.06;100.00;53677.72;10479921;28;20017;-67
2024/03/27 03:58:50;;;;;;;0.00;0.00;;;;;;;-145.06;100.00;53643.31;10478630;28;20030;-67
2024/03/27 04:03:50;;;;;;;0.00;0.00;;;;;;;-145.06;100.00;53689.88;10481348;28;20326;-68
2024/03/27 04:08:51;;;;;;;0.00;0.00;;;;;;;-145.06;100.00;53592.69;10477146;28;20024;-67
2024/03/27 04:13:51;;;;;;;0.00;0.00;;;;;;;-145.06;100.00;53677.72;10479991;28;20031;-69
2024/03/27 04:18:52;;;;;;;0.05;0.05;;;;;;;-145.06;100.00;53645.31;10484411;28;20302;-68
2024/03/27 04:23:52;;;;;;;0.00;0.00;;;;;;;-145.06;100.00;53675.69;10486090;28;20066;-67
2024/03/27 04:28:52;;;;;;;0.00;0.00;;;;;;;-145.06;100.00;53687.84;10481726;28;20017;-69
2024/03/27 04:33:53;;;;;;;0.00;0.00;;;;;;;-145.06;100.00;53671.66;10480113;28;20024;-69
2024/03/27 04:38:53;;;;;;;0.00;0.00;;;;;;;-145.06;100.00;53619.00;10479556;28;20269;-69
2024/03/27 04:43:53;;;;;;;0.00;0.00;;;;;;;-145.06;100.00;53608.88;10478819;28;20082;-67
2024/03/27 04:48:53;;;;;;;0.00;0.00;;;;;;;-145.06;100.00;53623.06;10479055;28;20017;-68
2024/03/27 04:53:54;;;;;;;0.00;0.00;;;;;;;-145.06;100.00;53592.69;10478370;28;20017;-68
2024/03/27 04:58:54;;;;;;;0.00;0.00;;;;;;;-145.06;100.00;53606.84;10477072;28;20035;-68
2024/03/27 05:03:55;;;;;;;0.00;0.00;;;;;;;-145.06;100.00;53588.63;10454983;28;20077;-68
2024/03/27 05:08:55;;;;;;;0.00;0.00;;;;;;;-145.06;100.00;53604.81;10480286;28;20031;-67
2024/03/27 05:13:55;;;;;;;0.00;0.00;;;;;;;-145.06;100.00;53592.69;10477084;28;20029;-67
2024/03/27 05:18:56;;;;;;;0.00;0.00;;;;;;;-145.06;100.00;53564.31;10476294;28;20024;-67
2024/03/27 05:23:56;;;;;;;0.00;0.00;;;;;;;-145.06;100.00;53570.41;10479887;28;20370;-67
2024/03/27 05:28:56;;;;;;;0.00;0.00;;;;;;;-145.06;100.00;53548.13;10477138;28;20537;-68
2024/03/27 05:33:57;;;;;;;0.00;0.00;;;;;;;-145.06;100.00;53548.13;10476683;28;20021;-68
2024/03/27 05:38:57;;;;;;;0.00;0.00;;;;;;;-145.06;100.00;53525.84;10483955;28;20033;-67
2024/03/27 05:43:57;;;;;;;0.00;0.00;;;;;;;-145.06;100.00;53523.81;10476143;28;20017;-67
2024/03/27 05:48:58;;;;;;;0.05;0.05;;;;;;;-145.06;100.00;53546.09;10477276;28;20077;-67
2024/03/27 05:53:58;;;;;;;0.00;0.00;;;;;;;-145.06;100.00;53511.69;10474311;28;20028;-67
2024/03/27 05:58:59;;;;;;;0.00;0.00;;;;;;;-145.06;100.00;53544.06;10482143;28;20036;-68
2024/03/27 06:03:59;;;;;;;0.00;0.00;;;;;;;-145.06;100.00;53548.13;10476339;28;20020;-68
2024/03/27 06:08:59;;;;;;;0.00;0.00;;;;;;;-145.06;100.00;53507.63;10474513;28;20021;-68
2024/03/27 06:14:00;;;;;;;0.00;0.00;;;;;;;-145.06;100.00;53499.53;10472421;28;20032;-68
2024/03/27 06:19:00;;;;;;;0.00;0.00;;;;;;;-145.06;100.00;53424.59;10475699;28;20041;-69
2024/03/27 06:24:00;;;;;;;0.10;0.10;;;;;;;-145.06;100.00;53274.75;10481574;28;20111;-68
2024/03/27 06:29:00;;;;;;;0.10;0.10;;;;;;;-145.06;100.00;53209.97;10482813;28;20024;-70
2024/03/27 06:34:02;;;;;;;0.00;0.00;;;;;;;-145.06;92.98;53137.06;10481266;28;20385;-70
2024/03/27 06:39:03;;;;;;;0.10;0.10;;;;;;;-145.06;91.16;53248.44;10489487;28;20107;-70
2024/03/27 06:44:03;;;;;;;0.10;0.10;;;;;;;-145.06;94.19;53220.09;10490826;28;20385;-70
2024/03/27 06:49:17;;;;;;;0.10;0.10;;;;;;;-145.06;92.19;53212.00;10487731;28;20024;-69
2024/03/27 06:54:18;;;;;;;0.10;0.10;;;;;;;-145.06;81.46;53106.69;10481159;28;20039;-69
2024/03/27 06:59:18;;;;;;;0.10;0.10;;;;;;;-145.06;71.21;53108.72;10489495;28;20043;-68
2024/03/27 07:04:18;;;;;;;0.10;0.10;;;;;;;-145.06;68.31;53100.63;10491870;28;20486;-67
2024/03/27 07:09:19;;;;;;;0.10;0.10;;;;;;;-145.06;67.34;52981.16;10481934;28;20509;-68
2024/03/27 07:14:19;;;;;;;0.00;0.00;;;;;;;-145.06;59.29;52960.91;10484490;28;20037;-68
2024/03/27 07:19:19;;;;;;;0.10;0.10;;;;;;;-145.06;55.54;52983.19;10475583;28;20025;-67
2024/03/27 07:24:19;;;;;;;0.00;0.00;;;;;;;-145.06;54.17;53090.50;10475738;28;20021;-68
2024/03/27 07:29:20;;;;;;;0.10;0.10;;;;;;;-145.06;57.68;53126.94;10476982;28;20032;-67
2024/03/27 07:34:20;;;;;;;0.00;0.00;;;;;;;-145.06;59.16;53252.50;10469748;28;20028;-68
2024/03/27 07:39:20;;;;;;;0.00;0.00;;;;;;;-145.06;60.49;53242.38;10475392;28;20043;-67
2024/03/27 07:44:21;;;;;;;0.10;0.10;;;;;;;-145.06;59.28;53173.53;10475555;28;20020;-68
2024/03/27 07:49:21;;;;;;;0.00;0.00;;;;;;;-145.06;57.20;53078.34;10481610;28;20029;-69
2024/03/27 07:54:22;;;;;;;0.00;0.00;;;;;;;-145.06;54.25;53179.59;10475742;28;20391;-68
2024/03/27 07:59:22;;;;;;;0.00;0.00;;;;;;;-145.06;55.49;53137.06;10483556;28;20020;-68
2024/03/27 08:04:23;;;;;;;0.00;0.00;;;;;;;-145.06;55.07;53068.22;10478444;28;20020;-68
2024/03/27 08:09:23;;;;;;;0.10;0.10;;;;;;;-145.06;54.25;53110.75;10475019;28;20093;-72
2024/03/27 08:14:23;;;;;;;0.00;0.00;;;;;;;-145.06;53.80;53098.59;10472810;28;20028;-69
2024/03/27 08:19:23;;;;;;;0.00;0.00;;;;;;;-145.06;53.47;53100.63;10481359;28;20033;-71
2024/03/27 08:24:24;;;;;;;0.10;0.10;;;;;;;-145.06;52.98;53056.09;10474738;28;20027;-68
2024/03/27 08:29:24;;;;;;;0.00;0.00;;;;;;;-145.06;53.76;53056.09;10477529;28;20025;-69
2024/03/27 08:34:25;;;;;;;0.00;0.00;;;;;;;-145.06;54.24;53052.03;10479414;28;20021;-70
2024/03/27 08:39:26;;;;;;;0.10;0.10;;;;;;;-145.06;55.80;52987.25;10474507;28;20202;-69
2024/03/27 08:44:26;;;;;;;0.00;0.00;;;;;;;-145.06;56.52;53070.25;10470684;28;20017;-69
2024/03/27 08:49:27;;;;;;;0.00;0.00;;;;;;;-145.06;54.25;53124.94;10470372;28;20382;-69
2024/03/27 08:54:27;;;;;;;0.00;0.00;;;;;;;-145.06;55.32;53155.28;10476390;28;20047;-69
2024/03/27 08:59:27;;;;;;;0.10;0.10;;;;;;;-145.06;55.92;53139.09;10473598;28;20461;-68
2024/03/27 09:04:28;;;;;;;0.10;0.10;;;;;;;-145.06;55.44;53025.72;10481509;28;20538;-69
2024/03/27 09:09:28;;;;;;;0.05;0.05;;;;;;;-145.06;54.11;52940.69;10475465;28;20016;-68
2024/03/27 09:14:29;;;;;;;0.00;0.00;;;;;;;-145.06;50.32;52987.25;10476955;28;20393;-68
2024/03/27 09:19:29;;;;;;;0.00;0.00;;;;;;;-145.06;52.69;52932.56;10471809;28;20029;-67
2024/03/27 09:24:30;;;;;;;0.00;0.00;;;;;;;-145.06;50.90;52964.97;10475715;28;20028;-67
2024/03/27 09:29:30;;;;;;;0.10;0.10;;;;;;;-145.06;50.04;52983.19;10466769;28;20051;-68
2024/03/27 09:34:30;;;;;;;0.10;0.10;;;;;;;-145.06;49.42;53031.78;10470728;28;20028;-67
2024/03/27 09:39:31;;;;;;;0.00;0.00;;;;;;;-145.06;49.87;53094.56;10471273;28;20473;-69
2024/03/27 09:44:31;;;;;;;0.10;0.10;;;;;;;-145.06;49.91;53108.72;10479281;28;20169;-67
2024/03/27 09:49:32;;;;;;;0.10;0.10;;;;;;;-145.06;52.49;53041.91;10472421;28;20098;-68
2024/03/27 09:54:34;;;;;;;0.10;0.10;;;;;;;-145.06;51.17;53072.28;10472450;28;20048;-67
2024/03/27 09:59:34;;;;;;;0.00;0.00;;;;;;;-145.06;51.63;52960.91;10471315;28;20104;-70
2024/03/27 10:04:35;;;;;;;0.10;0.10;;;;;;;-145.06;48.57;52930.56;10477224;28;20142;-69
2024/03/27 10:09:35;;;;;;;0.10;0.10;;;;;;;-145.06;43.87;53068.22;10468148;28;20029;-69
2024/03/27 10:14:36;;;;;;;0.10;0.10;;;;;;;-145.06;43.16;53080.38;10480363;28;20037;-68
2024/03/27 10:19:36;;;;;;;0.00;0.00;;;;;;;-145.06;42.18;53165.41;10480660;28;20048;-69
2024/03/27 10:24:37;;;;;;;0.10;0.10;;;;;;;-145.06;42.58;53145.16;10474398;28;20008;-70
2024/03/27 10:29:38;;;;;;;0.00;0.00;;;;;;;-145.06;42.08;53183.66;10477133;28;20020;-68
2024/03/27 10:34:39;;;;;;;0.10;0.10;;;;;;;-145.06;41.47;53159.34;10474111;28;20394;-68
2024/03/27 10:39:45;;;;;;;0.00;0.00;;;;;;;-145.06;43.23;53189.72;10481979;28;20020;-68
2024/03/27 10:44:46;;;;;;;0.00;0.00;;;;;;;-145.06;42.14;53284.88;10472865;28;20363;-67
2024/03/27 10:49:47;;;;;;;0.10;0.10;;;;;;;-145.06;44.38;53139.09;10477093;28;20032;-67
2024/03/27 10:54:48;;;;;;;0.20;0.20;;;;;;;-145.06;42.98;53171.50;10467709;28;20036;-67
2024/03/27 10:59:51;;;;;;;0.10;0.10;;;;;;;-145.06;44.54;53118.84;10465902;28;20098;-68
2024/03/27 11:04:56;;;;;;;0.00;0.00;;;;;;;-145.06;42.98;53122.91;10477155;28;20020;-68
2024/03/27 11:09:56;;;;;;;0.00;0.00;;;;;;;-145.06;43.70;53102.66;10474643;28;20095;-67
2024/03/27 11:15:03;;;;;;;0.00;0.00;;;;;;;-145.06;42.31;53145.16;10484521;28;20043;-68
2024/03/27 11:20:05;;;;;;;0.00;0.00;;;;;;;-145.06;42.94;53151.25;10482359;28;20393;-68
2024/03/27 11:25:10;;;;;;;0.00;0.00;;;;;;;-145.06;44.78;53124.94;10488960;28;20012;-67
2024/03/27 11:30:17;;;;;;;0.00;0.00;;;;;;;-145.06;43.63;53187.69;10492907;28;20020;-68
2024/03/27 11:35:18;;;;;;;0.00;0.00;;;;;;;-145.06;46.49;53094.56;10487614;28;20029;-67
2024/03/27 11:40:20;;;;;;;0.00;0.00;;;;;;;-145.06;44.29;53212.00;10488520;28;20237;-68
2024/03/27 11:45:20;;;;;;;0.00;0.00;;;;;;;-145.06;44.88;53234.25;10485845;28;20025;-66
2024/03/27 11:50:22;;;;;;;0.00;0.00;;;;;;;-145.06;45.43;53228.19;10480438;28;20028;-67
2024/03/27 11:55:22;;;;;;;0.00;0.00;;;;;;;-145.06;47.65;53143.16;10489474;28;20071;-68
2024/03/27 12:00:23;;;;;;;0.00;0.00;;;;;;;-145.06;46.76;53145.16;10475624;28;20441;-67
2024/03/27 12:05:23;;;;;;;0.00;0.00;;;;;;;-145.06;46.13;53143.16;10472949;28;20028;-67
2024/03/27 12:10:25;;;;;;;0.00;0.00;;;;;;;-145.06;45.21;53183.66;10483487;28;20119;-67
2024/03/27 12:15:26;;;;;;;0.10;0.10;;;;;;;-145.06;47.10;53155.28;10475866;28;20086;-67
2024/03/27 12:20:33;;;;;;;0.10;0.10;;;;;;;-145.06;46.61;53212.00;10487963;28;20527;-67
2024/03/27 12:25:33;;;;;;;0.10;0.10;;;;;;;-145.06;47.57;53159.34;10478063;28;20021;-68
2024/03/27 12:30:37;;;;;;;0.03;0.03;;;;;;;-145.06;47.67;53143.16;10477023;28;20024;-68
2024/03/27 12:35:38;;;;;;;;;;;;;;;-145.06;46.75;53139.09;10480030;28;20315;-67
2024/03/27 12:40:38;;;;;;;0.00;0.00;;;;;;;-145.06;46.71;53092.53;10474104;28;20285;-67
2024/03/27 12:45:38;;;;;;;0.00;0.00;;;;;;;-145.06;46.38;53143.16;10477670;28;20266;-68
2024/03/27 12:50:38;;;;;;;0.00;0.00;;;;;;;-145.06;48.07;53092.53;10477246;28;20105;-67
2024/03/27 12:55:40;;;;;;;0.00;0.00;;;;;;;-145.06;45.78;53149.22;10477818;28;20021;-67
2024/03/27 13:00:41;;;;;;;0.00;0.00;;;;;;;-145.06;47.28;53070.25;10485988;28;20050;-68
2024/03/27 13:05:44;;;;;;;0.00;0.00;;;;;;;-145.06;45.48;53155.28;10469655;28;20529;-67
2024/03/27 13:10:45;;;;;;;0.10;0.10;;;;;;;-145.06;47.28;53147.19;10477672;28;20097;-68
2024/03/27 13:15:45;;;;;;;0.00;0.00;;;;;;;-145.06;49.68;53050.00;10472017;28;20021;-68
2024/03/27 13:20:46;;;;;;;0.10;0.10;;;;;;;-145.06;47.31;53122.91;10478151;28;20047;-67
2024/03/27 13:25:46;;;;;;;0.10;0.10;;;;;;;-145.06;47.08;53124.94;10481835;28;20024;-67
2024/03/27 13:30:46;;;;;;;0.10;0.10;;;;;;;-145.06;48.25;53098.59;10475441;28;20445;-67
2024/03/27 13:35:48;;;;;;;0.00;0.00;;;;;;;-145.06;48.72;53128.97;10477541;28;20453;-67
2024/03/27 13:40:48;;;;;;;0.00;0.00;;;;;;;-145.06;47.64;53124.94;10477953;28;20021;-67
2024/03/27 13:45:50;;;;;;;0.00;0.00;;;;;;;-145.06;46.37;53153.28;10475020;28;20025;-67
2024/03/27 13:50:50;;;;;;;0.03;0.03;;;;;;;-145.06;46.15;53128.97;10477161;28;20466;-68
2024/03/27 13:55:50;;;;;;;0.10;0.10;;;;;;;-145.06;47.52;53104.69;10473320;28;20382;-67
2024/03/27 14:00:51;;;;;;;0.00;0.00;;;;;;;-145.06;46.58;53128.97;10468290;28;20481;-67
2024/03/27 14:05:51;;;;;;;0.00;0.00;;;;;;;-145.06;46.75;53122.91;10477384;28;20099;-67
2024/03/27 14:10:52;;;;;;;0.00;0.00;;;;;;;-145.06;48.01;53045.97;10474200;28;20052;-69
2024/03/27 14:15:52;;;;;;;0.00;0.00;;;;;;;-145.06;45.25;53098.59;10483858;28;20021;-70
2024/03/27 14:20:52;;;;;;;0.00;0.00;;;;;;;-145.06;45.17;53090.50;10485071;28;20016;-68
2024/03/27 14:25:53;;;;;;;0.00;0.00;;;;;;;-145.06;45.87;53090.50;10472289;28;20013;-68
2024/03/27 14:30:54;;;;;;;0.10;0.10;;;;;;;-145.06;46.48;53086.47;10468566;28;20492;-68
2024/03/27 14:35:54;;;;;;;0.00;0.00;;;;;;;-145.06;46.36;53116.81;10474711;28;20032;-68
2024/03/27 14:40:54;;;;;;;0.00;0.00;;;;;;;-145.06;45.53;53147.19;10473064;28;20025;-68
2024/03/27 14:45:55;;;;;;;0.00;0.00;;;;;;;-145.06;46.64;53157.31;10475892;28;20133;-68
2024/03/27 14:50:55;;;;;;;0.00;0.00;;;;;;;-145.06;46.37;53195.78;10478856;28;20023;-68
2024/03/27 14:55:56;;;;;;;0.00;0.00;;;;;;;-145.06;47.36;53199.84;10482853;28;20498;-69
2024/03/27 15:00:56;;;;;;;0.10;0.10;;;;;;;-145.06;49.29;53183.66;10484748;28;20021;-68
2024/03/27 15:05:56;;;;;;;0.00;0.00;;;;;;;-145.06;49.94;53151.25;10485407;28;20025;-68
2024/03/27 15:10:57;;;;;;;0.00;0.00;;;;;;;-145.06;51.10;53143.16;10479258;28;20033;-68
2024/03/27 15:15:57;;;;;;;0.00;0.00;;;;;;;-145.06;52.05;53149.22;10487714;28;20070;-68
2024/03/27 15:20:57;;;;;;;0.00;0.00;;;;;;;-145.06;53.19;53159.34;10478732;28;20019;-68
2024/03/27 15:26:01;;;;;;;0.00;0.00;;;;;;;-145.06;54.09;53126.94;10487865;28;20019;-68
2024/03/27 15:31:02;;;;;;;0.00;0.00;;;;;;;-145.06;54.83;53143.16;10489618;28;20079;-68
2024/03/27 15:36:03;;;;;;;0.00;0.00;;;;;;;-145.06;55.52;53143.16;10487802;28;20020;-69
2024/03/27 15:41:03;;;;;;;0.00;0.00;;;;;;;-145.06;54.55;53145.16;10478490;28;20112;-68
2024/03/27 15:46:04;;;;;;;0.10;0.10;;;;;;;-145.06;56.07;53131.00;10474069;28;20021;-68
2024/03/27 15:51:04;;;;;;;0.00;0.00;;;;;;;-145.06;56.30;53151.25;10491126;28;20481;-68
2024/03/27 15:56:04;;;;;;;0.00;0.00;;;;;;;-145.06;56.82;53102.66;10483849;28;20070;-68
2024/03/27 16:01:05;;;;;;;0.00;0.00;;;;;;;-145.06;56.53;53110.75;10481879;28;20103;-68
2024/03/27 16:06:05;;;;;;;0.00;0.00;;;;;;;-145.06;57.56;53120.88;10481235;28;20045;-68
2024/03/27 16:11:06;;;;;;;0.00;0.00;;;;;;;-145.06;57.92;53147.19;10481599;28;20020;-68
2024/03/27 16:16:06;;;;;;;0.03;0.03;;;;;;;-145.06;59.47;53124.94;10478149;28;20028;-68
2024/03/27 16:21:07;;;;;;;0.05;0.05;;;;;;;-145.06;59.97;53143.16;10481715;28;20020;-68
2024/03/27 16:26:07;;;;;;;0.00;0.00;;;;;;;-145.06;61.34;53106.69;10485162;28;20017;-68
2024/03/27 16:31:07;;;;;;;0.00;0.00;;;;;;;-145.06;61.08;53179.59;10480603;28;20494;-68
2024/03/27 16:36:08;;;;;;;0.10;0.10;;;;;;;-145.06;64.02;53228.19;10475383;28;20024;-68
2024/03/27 16:41:08;;;;;;;0.10;0.10;;;;;;;-145.06;69.54;53240.34;10477909;28;20035;-68
2024/03/27 16:46:09;;;;;;;0.10;0.10;;;;;;;-145.06;75.99;53205.91;10481879;28;20195;-68
2024/03/27 16:51:09;;;;;;;0.10;0.10;;;;;;;-145.06;78.53;53232.25;10471030;28;20031;-67
2024/03/27 16:56:09;;;;;;;0.00;0.00;;;;;;;-145.06;80.04;53195.78;10478342;28;20029;-67
2024/03/27 17:01:09;;;;;;;0.10;0.10;;;;;;;-145.06;80.85;53218.06;10483986;28;20024;-67
2024/03/27 17:06:10;;;;;;;0.00;0.00;;;;;;;-145.06;81.67;53252.50;10476925;28;20374;-67
2024/03/27 17:11:10;;;;;;;0.10;0.10;;;;;;;-145.06;82.09;53216.03;10475484;28;20512;-68
2024/03/27 17:16:11;;;;;;;0.10;0.10;;;;;;;-145.06;81.93;53242.38;10483123;28;20104;-67
2024/03/27 17:21:11;;;;;;;0.10;0.10;;;;;;;-145.06;83.14;53216.03;10477894;28;20297;-67
2024/03/27 17:26:11;;;;;;;0.10;0.10;;;;;;;-145.06;84.75;53228.19;10478185;28;20465;-67
2024/03/27 17:31:15;;;;;;;0.10;0.10;;;;;;;-145.06;85.89;53205.91;10485393;28;20443;-66
2024/03/27 17:36:15;;;;;;;0.10;0.10;;;;;;;-145.06;86.72;53258.56;10482362;28;20389;-67
2024/03/27 17:41:16;;;;;;;0.10;0.10;;;;;;;-145.06;87.37;53222.13;10482855;28;20028;-67
2024/03/27 17:46:16;;;;;;;0.00;0.00;;;;;;;-145.06;88.94;53250.47;10475808;28;20029;-67
2024/03/27 17:51:16;;;;;;;0.10;0.10;;;;;;;-145.06;90.82;53199.84;10482303;28;20032;-67
2024/03/27 17:56:17;;;;;;;0.10;0.10;;;;;;;-145.06;92.12;53216.03;10479590;28;20028;-67
2024/03/27 18:01:18;;;;;;;0.10;0.10;;;;;;;-145.06;92.87;53234.25;10473406;28;20025;-67
2024/03/27 18:06:18;;;;;;;0.00;0.00;;;;;;;-145.06;93.83;53232.25;10469648;28;20393;-67
2024/03/27 18:11:18;;;;;;;0.00;0.00;;;;;;;-145.06;95.62;53232.25;10472220;28;20051;-67
2024/03/27 18:16:19;;;;;;;0.10;0.10;;;;;;;-145.06;97.05;53236.28;10481803;28;20020;-67
2024/03/27 18:21:19;;;;;;;0.10;0.10;;;;;;;-145.06;96.49;53238.31;10483505;28;20082;-67
2024/03/27 18:26:19;;;;;;;0.10;0.10;;;;;;;-145.06;95.76;53262.63;10483512;28;20028;-67
2024/03/27 18:31:20;;;;;;;0.10;0.10;;;;;;;-145.06;95.79;53276.78;10490135;28;20039;-68
2024/03/27 18:36:20;;;;;;;0.10;0.10;;;;;;;-145.06;96.79;53290.97;10479176;28;20021;-67
2024/03/27 18:41:20;;;;;;;0.10;0.10;;;;;;;-145.06;98.39;53286.91;10484953;28;20270;-67
2024/03/27 18:46:21;;;;;;;0.05;0.05;;;;;;;-145.06;99.61;53258.56;10489127;28;20025;-67
2024/03/27 18:51:21;;;;;;;0.10;0.10;;;;;;;-145.06;100.00;53274.75;10483478;28;20032;-68
2024/03/27 18:56:21;;;;;;;0.00;0.00;;;;;;;-145.06;100.00;53264.63;10491664;28;20029;-67
2024/03/27 19:01:21;;;;;;;0.10;0.10;;;;;;;-145.06;100.00;53260.59;10481198;28;20353;-66
2024/03/27 19:06:23;;;;;;;0.00;0.00;;;;;;;-145.06;100.00;53266.66;10489550;28;20033;-67
2024/03/27 19:11:23;;;;;;;0.10;0.10;;;;;;;-145.06;100.00;53240.34;10481541;28;20408;-67
2024/03/27 19:16:25;;;;;;;0.05;0.05;;;;;;;-145.06;100.00;53256.53;10487826;28;20025;-67
2024/03/27 19:21:26;;;;;;;0.10;0.10;;;;;;;-145.06;100.00;53244.38;10477851;28;20024;-67
2024/03/27 19:26:26;;;;;;;0.03;0.03;;;;;;;-145.06;100.00;53226.16;10480213;28;20024;-68
2024/03/27 19:31:26;;;;;;;0.10;0.10;;;;;;;-145.06;100.00;53209.97;10484074;28;20032;-68
2024/03/27 19:36:26;;;;;;;0.10;0.10;;;;;;;-145.06;100.00;53197.81;10481425;28;20053;-67
2024/03/27 19:41:27;;;;;;;0.10;0.10;;;;;;;-145.06;100.00;53171.50;10484880;28;20466;-67
2024/03/27 19:46:27;;;;;;;0.10;0.10;;;;;;;-145.06;100.00;53185.66;10480943;28;20436;-68
2024/03/27 19:51:28;;;;;;;0.10;0.10;;;;;;;-145.06;100.00;53175.53;10472982;28;20020;-69
2024/03/27 19:56:28;;;;;;;0.00;0.00;;;;;;;-145.06;100.00;53175.53;10475681;28;20439;-69
2024/03/27 20:01:29;;;;;;;0.00;0.00;;;;;;;-145.06;100.00;53145.16;10484094;28;20016;-68
2024/03/27 20:06:29;;;;;;;0.10;0.10;;;;;;;-145.06;100.00;53159.34;10478021;28;20032;-68
2024/03/27 20:11:30;;;;;;;0.05;0.05;;;;;;;-145.06;100.00;53183.66;10472552;28;20103;-67
2024/03/27 20:16:30;;;;;;;0.00;0.00;;;;;;;-145.06;100.00;53187.69;10482125;28;20013;-68
2024/03/27 20:21:30;;;;;;;0.10;0.10;;;;;;;-145.06;100.00;53157.31;10475580;28;20378;-69
2024/03/27 20:26:30;;;;;;;0.10;0.10;;;;;;;-145.06;100.00;53126.94;10479572;28;20526;-69
2024/03/27 20:31:31;;;;;;;0.10;0.10;;;;;;;-145.06;100.00;53126.94;10478032;28;20394;-70
2024/03/27 20:36:31;;;;;;;0.00;0.00;;;;;;;-145.06;100.00;53106.69;10480105;28;20041;-68
2024/03/27 20:41:32;;;;;;;0.00;0.00;;;;;;;-145.06;100.00;53070.25;10475832;28;20031;-69
2024/03/27 20:46:32;;;;;;;0.10;0.10;;;;;;;-145.06;100.00;53102.66;10472104;28;20082;-70
2024/03/27 20:51:32;;;;;;;0.10;0.10;;;;;;;-145.06;100.00;53090.50;10475714;28;20032;-68
2024/03/27 20:56:32;;;;;;;0.10;0.10;;;;;;;-145.06;100.00;53037.88;10470842;28;20087;-68
2024/03/27 21:01:33;;;;;;;0.00;0.00;;;;;;;-145.06;100.00;53096.56;10473812;28;20021;-69
2024/03/27 21:06:33;;;;;;;0.10;0.10;;;;;;;-145.06;100.00;53005.47;10478673;28;20029;-69
2024/03/27 21:11:34;;;;;;;0.10;0.10;;;;;;;-145.06;100.00;53011.53;10469927;28;20031;-69
2024/03/27 21:16:35;;;;;;;0.10;0.10;;;;;;;-145.06;100.00;52995.34;10468679;28;20104;-68
2024/03/27 21:21:35;;;;;;;0.10;0.10;;;;;;;-145.06;100.00;52985.22;10479504;28;20013;-69
2024/03/27 21:26:35;;;;;;;0.08;0.08;;;;;;;-145.06;100.00;52989.28;10471478;28;20017;-70
2024/03/27 21:31:35;;;;;;;0.00;0.00;;;;;;;-145.06;100.00;53001.41;10477001;28;20024;-69
2024/03/27 21:36:38;;;;;;;0.10;0.10;;;;;;;-145.06;100.00;53001.41;10476830;28;20031;-69
2024/03/27 21:41:41;;;;;;;0.00;0.00;;;;;;;-145.06;100.00;53019.63;10475728;28;20029;-68
2024/03/27 21:46:41;;;;;;;0.10;0.10;;;;;;;-145.06;100.00;52999.41;10470192;28;20024;-67
2024/03/27 21:51:42;;;;;;;0.00;0.00;;;;;;;-145.06;100.00;53019.63;10481676;28;20016;-68
2024/03/27 21:56:42;;;;;;;0.10;0.10;;;;;;;-145.06;100.00;53033.81;10466778;28;20389;-70
2024/03/27 22:01:42;;;;;;;0.08;0.08;;;;;;;-145.06;100.00;53035.84;10469745;28;20028;-69
2024/03/27 22:06:43;;;;;;;0.00;0.00;;;;;;;-145.06;100.00;53047.97;10473005;28;20025;-68
2024/03/27 22:11:43;;;;;;;0.10;0.10;;;;;;;-145.06;100.00;53039.88;10476241;28;20080;-68
2024/03/27 22:16:44;;;;;;;0.10;0.10;;;;;;;-145.06;100.00;53023.69;10470928;28;20036;-68
2024/03/27 22:21:44;;;;;;;0.10;0.10;;;;;;;-145.06;100.00;53029.75;10474542;28;20074;-67
2024/03/27 22:26:44;;;;;;;0.00;0.00;;;;;;;-145.06;100.00;52987.25;10465397;28;20020;-68
2024/03/27 22:31:44;;;;;;;0.08;0.08;;;;;;;-145.06;100.00;52981.16;10468661;28;20025;-69
2024/03/27 22:36:45;;;;;;;0.10;0.10;;;;;;;-145.06;100.00;52975.09;10461080;28;20021;-69
2024/03/27 22:41:45;;;;;;;0.10;0.10;;;;;;;-145.06;100.00;52942.69;10469977;28;20019;-69